createdAt,value
2022-12-14T00:01:55.505Z,14.98
2022-12-14T00:04:23.013Z,17.32
2022-12-14T00:06:52.098Z,17.85
2022-12-14T00:09:20.296Z,16.87
2022-12-14T00:11:49.877Z,16.35
2022-12-14T00:14:17.722Z,15.45
2022-12-14T00:16:45.529Z,16.12
2022-12-14T00:19:13.889Z,15.23
2022-12-14T00:21:41.763Z,14.30
2022-12-14T00:24:09.988Z,15.05
2022-12-14T00:26:38.117Z,14.53
2022-12-14T00:29:05.845Z,13.80
2022-12-14T00:31:33.629Z,12.15
2022-12-14T00:34:01.701Z,12.55
2022-12-14T00:36:30.910Z,13.35
2022-12-14T00:38:58.663Z,11.22
2022-12-14T00:41:26.506Z,10.50
2022-12-14T00:43:55.229Z,10.48
2022-12-14T00:46:23.015Z,10.78
2022-12-14T00:48:50.585Z,10.60
2022-12-14T00:51:18.726Z,11.43
2022-12-14T00:53:46.754Z,11.60
2022-12-14T00:56:14.409Z,12.93
2022-12-14T00:58:42.184Z,14.25
2022-12-14T01:01:15.400Z,14.38
2022-12-14T01:03:43.297Z,13.05
2022-12-14T01:06:22.808Z,13.88
2022-12-14T01:08:50.643Z,12.73
2022-12-14T01:11:18.816Z,11.68
2022-12-14T01:13:49.385Z,11.70
2022-12-14T01:16:18.128Z,12.00
2022-12-14T01:18:46.027Z,11.38
2022-12-14T01:21:20.381Z,10.45
2022-12-14T01:23:55.084Z,10.40
2022-12-14T01:26:25.190Z,9.90
2022-12-14T01:28:56.951Z,11.95
2022-12-14T01:31:29.251Z,10.30
2022-12-14T01:33:57.218Z,12.10
2022-12-14T01:36:31.554Z,11.12
2022-12-14T01:39:04.850Z,12.65
2022-12-14T01:41:52.495Z,11.75
2022-12-14T01:44:25.645Z,11.95
2022-12-14T01:47:12.245Z,13.03
2022-12-14T01:49:47.416Z,13.50
2022-12-14T01:52:26.240Z,14.53
2022-12-14T01:55:02.717Z,12.28
2022-12-14T01:57:38.975Z,11.65
2022-12-14T02:00:10.323Z,10.48
2022-12-14T02:02:41.633Z,9.98
2022-12-14T02:05:11.827Z,9.80
2022-12-14T02:07:43.411Z,10.90
2022-12-14T02:10:13.081Z,8.55
2022-12-14T02:12:48.479Z,9.03
2022-12-14T02:15:17.037Z,8.45
2022-12-14T02:17:47.219Z,8.43
2022-12-14T02:20:16.425Z,7.85
2022-12-14T02:23:23.262Z,8.10
2022-12-14T02:26:12.999Z,7.17
2022-12-14T02:29:21.443Z,7.92
2022-12-14T02:32:17.356Z,7.35
2022-12-14T02:37:44.261Z,5.80
2022-12-14T02:41:12.418Z,6.28
2022-12-14T02:44:03.949Z,6.85
2022-12-14T02:47:02.402Z,7.45
2022-12-14T02:50:05.793Z,7.30
2022-12-14T02:52:38.925Z,6.75
2022-12-14T02:55:30.068Z,8.83
2022-12-14T02:58:18.114Z,9.35
2022-12-14T03:00:48.301Z,9.58
2022-12-14T03:03:16.505Z,11.73
2022-12-14T03:05:57.233Z,11.68
2022-12-14T03:08:28.812Z,11.22
2022-12-14T03:11:05.733Z,12.15
2022-12-14T03:13:38.843Z,10.45
2022-12-14T03:16:16.601Z,10.78
2022-12-14T03:19:04.756Z,12.23
2022-12-14T03:21:37.594Z,11.45
2022-12-14T03:24:09.757Z,10.23
2022-12-14T03:26:50.784Z,8.05
2022-12-14T03:29:32.717Z,7.53
2022-12-14T03:32:05.720Z,7.78
2022-12-14T03:34:37.912Z,8.35
2022-12-14T03:37:41.384Z,8.35
2022-12-14T03:40:13.447Z,7.20
2022-12-14T03:43:16.770Z,8.03
2022-12-14T03:46:17.418Z,7.87
2022-12-14T03:48:52.321Z,7.20
2022-12-14T03:51:37.650Z,8.13
2022-12-14T03:54:16.696Z,6.97
2022-12-14T03:56:58.777Z,7.00
2022-12-14T03:59:47.053Z,7.03
2022-12-14T04:02:34.021Z,7.70
2022-12-14T04:05:29.080Z,10.63
2022-12-14T04:11:02.863Z,7.42
2022-12-14T04:13:59.659Z,7.85
2022-12-14T04:16:53.031Z,7.50
2022-12-14T04:19:26.210Z,7.67
2022-12-14T04:22:04.659Z,7.55
2022-12-14T04:25:05.409Z,7.25
2022-12-14T04:27:55.476Z,7.37
2022-12-14T04:30:23.416Z,12.03
2022-12-14T04:33:04.022Z,8.88
2022-12-14T04:35:41.372Z,10.38
2022-12-14T04:38:23.129Z,10.55
2022-12-14T04:40:57.862Z,11.10
2022-12-14T04:43:30.119Z,10.95
2022-12-14T04:46:08.164Z,11.15
2022-12-14T04:49:11.867Z,12.58
2022-12-14T04:52:21.691Z,11.95
2022-12-14T04:55:00.433Z,22.98
2022-12-14T04:57:50.182Z,11.90
2022-12-14T05:00:18.049Z,11.80
2022-12-14T05:03:18.790Z,11.48
2022-12-14T05:06:15.953Z,11.85
2022-12-14T05:09:17.973Z,10.93
2022-12-14T05:12:09.119Z,10.60
2022-12-14T05:14:52.650Z,10.93
2022-12-14T05:17:20.677Z,11.20
2022-12-14T05:19:51.318Z,9.98
2022-12-14T05:22:19.874Z,11.38
2022-12-14T05:24:51.554Z,10.10
2022-12-14T05:27:19.720Z,10.00
2022-12-14T05:29:48.219Z,11.93
2022-12-14T05:32:17.115Z,9.93
2022-12-14T05:34:46.051Z,11.05
2022-12-14T05:37:18.446Z,11.30
2022-12-14T05:39:46.059Z,10.23
2022-12-14T05:42:17.823Z,10.78
2022-12-14T05:44:48.608Z,12.53
2022-12-14T05:47:17.917Z,13.58
2022-12-14T05:49:49.283Z,15.03
2022-12-14T05:52:20.845Z,16.65
2022-12-14T05:54:48.830Z,22.37
2022-12-14T05:57:16.993Z,21.70
2022-12-14T05:59:45.068Z,23.47
2022-12-14T06:02:14.504Z,29.20
2022-12-14T06:04:43.768Z,21.33
2022-12-14T06:07:12.294Z,17.87
2022-12-14T06:09:41.417Z,20.10
2022-12-14T06:12:10.458Z,18.02
2022-12-14T06:14:38.540Z,18.25
2022-12-14T06:17:07.392Z,21.82
2022-12-14T06:19:37.425Z,18.17
2022-12-14T06:22:05.099Z,15.60
2022-12-14T06:24:34.888Z,14.40
2022-12-14T06:27:03.310Z,14.90
2022-12-14T06:29:31.471Z,17.50
2022-12-14T06:32:04.268Z,24.20
2022-12-14T06:34:38.098Z,21.20
2022-12-14T06:37:03.378Z,14.15
2022-12-14T06:39:31.861Z,11.40
2022-12-14T06:41:59.376Z,11.73
2022-12-14T06:44:29.925Z,12.68
2022-12-14T06:46:58.007Z,12.10
2022-12-14T06:49:26.050Z,12.40
2022-12-14T06:51:54.479Z,12.30
2022-12-14T06:54:24.742Z,12.37
2022-12-14T06:56:53.408Z,13.35
2022-12-14T06:59:22.671Z,12.50
2022-12-14T07:01:50.564Z,12.70
2022-12-14T07:04:20.746Z,16.73
2022-12-14T07:06:50.661Z,18.73
2022-12-14T07:09:20.805Z,29.82
2022-12-14T07:11:51.009Z,20.88
2022-12-14T07:14:18.863Z,24.47
2022-12-14T07:16:48.776Z,20.25
2022-12-14T07:19:18.516Z,26.52
2022-12-14T07:21:47.588Z,22.60
2022-12-14T07:24:16.307Z,20.45
2022-12-14T07:26:45.088Z,21.82
2022-12-14T07:29:15.780Z,21.77
2022-12-14T07:31:44.471Z,19.10
2022-12-14T07:34:15.060Z,18.82
2022-12-14T07:36:43.519Z,20.45
2022-12-14T07:39:15.097Z,18.95
2022-12-14T07:41:46.643Z,20.15
2022-12-14T07:44:17.154Z,19.55
2022-12-14T07:46:45.181Z,19.32
2022-12-14T07:49:13.071Z,16.93
2022-12-14T07:51:46.131Z,17.00
2022-12-14T07:54:14.601Z,16.10
2022-12-14T07:56:43.809Z,13.55
2022-12-14T07:59:15.695Z,14.98
2022-12-14T08:01:45.985Z,13.65
2022-12-14T08:04:20.022Z,13.45
2022-12-14T08:06:51.487Z,11.63
2022-12-14T08:09:19.697Z,12.25
2022-12-14T08:11:47.543Z,13.40
2022-12-14T08:14:18.566Z,13.20
2022-12-14T08:16:48.705Z,11.75
2022-12-14T08:19:17.713Z,11.88
2022-12-14T08:21:45.636Z,11.95
2022-12-14T08:24:16.215Z,14.60
2022-12-14T08:26:49.194Z,13.55
2022-12-14T08:29:15.008Z,13.40
2022-12-14T08:31:42.761Z,13.40
2022-12-14T08:34:10.488Z,12.37
2022-12-14T08:36:38.352Z,12.55
2022-12-14T08:39:09.824Z,11.78
2022-12-14T08:41:37.685Z,13.62
2022-12-14T08:44:06.094Z,14.85
2022-12-14T08:46:37.068Z,14.87
2022-12-14T08:49:06.925Z,18.20
2022-12-14T08:51:39.593Z,13.88
2022-12-14T08:54:07.547Z,11.30
2022-12-14T08:56:35.838Z,10.95
2022-12-14T08:59:06.805Z,11.78
2022-12-14T09:01:35.081Z,10.85
2022-12-14T09:04:05.890Z,8.60
2022-12-14T09:06:37.799Z,8.83
2022-12-14T09:09:13.590Z,8.20
2022-12-14T09:11:37.198Z,13.72
2022-12-14T09:14:06.853Z,11.80
2022-12-14T09:16:35.494Z,8.65
2022-12-14T09:19:06.219Z,7.97
2022-12-14T09:21:34.369Z,7.12
2022-12-14T09:24:02.056Z,7.80
2022-12-14T09:26:30.216Z,8.93
2022-12-14T09:28:58.294Z,11.18
2022-12-14T09:31:27.898Z,11.30
2022-12-14T09:33:56.280Z,13.58
2022-12-14T09:36:27.976Z,11.10
2022-12-14T09:38:57.096Z,11.05
2022-12-14T09:41:50.966Z,14.75
2022-12-14T09:44:29.804Z,14.58
2022-12-14T09:47:29.794Z,18.77
2022-12-14T09:50:09.068Z,24.55
2022-12-14T09:52:53.129Z,20.68
2022-12-14T09:55:28.734Z,14.18
2022-12-14T09:58:01.970Z,10.70
2022-12-14T10:00:35.394Z,11.95
2022-12-14T10:03:38.988Z,13.70
2022-12-14T10:06:44.165Z,18.45
2022-12-14T10:09:50.445Z,13.38
2022-12-14T10:12:36.363Z,9.40
2022-12-14T10:15:17.202Z,16.07
2022-12-14T10:18:41.398Z,14.53
2022-12-14T10:21:14.810Z,15.45
2022-12-14T10:23:54.075Z,11.20
2022-12-14T10:26:33.172Z,7.95
2022-12-14T10:29:12.356Z,9.25
2022-12-14T10:32:18.962Z,11.15
2022-12-14T10:34:48.932Z,9.93
2022-12-14T10:37:37.466Z,12.88
2022-12-14T10:40:33.595Z,14.45
2022-12-14T10:43:03.626Z,14.45
2022-12-14T10:46:10.039Z,11.50
2022-12-14T10:48:44.940Z,9.83
2022-12-14T10:51:38.012Z,10.10
2022-12-14T10:54:33.338Z,10.95
2022-12-14T10:57:01.403Z,8.73
2022-12-14T10:59:43.696Z,9.98
2022-12-14T11:02:14.765Z,9.85
2022-12-14T11:05:00.879Z,10.65
2022-12-14T11:07:38.973Z,10.30
2022-12-14T11:10:29.397Z,8.25
2022-12-14T11:13:15.088Z,8.35
2022-12-14T11:18:25.420Z,9.15
2022-12-14T11:21:04.683Z,9.33
2022-12-14T11:23:44.660Z,9.83
2022-12-14T11:26:25.121Z,8.80
2022-12-14T11:28:56.203Z,9.30
2022-12-14T11:31:32.461Z,11.38
2022-12-14T11:34:03.993Z,9.88
2022-12-14T11:36:39.197Z,9.65
2022-12-14T11:39:24.273Z,10.20
2022-12-14T11:42:04.132Z,12.60
2022-12-14T11:44:38.335Z,11.08
2022-12-14T11:47:19.832Z,8.68
2022-12-14T11:49:57.446Z,8.55
2022-12-14T11:52:40.279Z,8.50
2022-12-14T11:55:26.847Z,8.80
2022-12-14T11:57:55.277Z,8.68
2022-12-14T12:00:46.611Z,9.33
2022-12-14T12:03:19.545Z,12.98
2022-12-14T12:05:48.885Z,12.23
2022-12-14T12:08:22.489Z,10.38
2022-12-14T12:10:54.378Z,8.98
2022-12-14T12:13:28.074Z,7.53
2022-12-14T12:16:01.771Z,7.60
2022-12-14T12:18:47.421Z,8.08
2022-12-14T12:21:26.804Z,10.15
2022-12-14T12:24:03.622Z,8.55
2022-12-14T12:27:01.058Z,8.25
2022-12-14T12:29:40.009Z,7.22
2022-12-14T12:32:40.649Z,6.87
2022-12-14T12:35:53.449Z,6.12
2022-12-14T12:38:54.919Z,7.53
2022-12-14T12:41:49.799Z,8.28
2022-12-14T12:44:26.510Z,9.25
2022-12-14T12:49:33.128Z,17.15
2022-12-14T12:52:09.629Z,9.85
2022-12-14T12:54:55.352Z,9.65
2022-12-14T12:57:27.612Z,9.38
2022-12-14T12:59:56.953Z,8.95
2022-12-14T13:02:38.680Z,9.35
2022-12-14T13:05:45.151Z,9.95
2022-12-14T13:07:54.690Z,9.33
2022-12-14T13:10:32.422Z,8.93
2022-12-14T13:13:11.784Z,8.98
2022-12-14T13:15:54.355Z,8.93
2022-12-14T13:18:59.698Z,9.60
2022-12-14T13:21:35.916Z,10.60
2022-12-14T13:24:07.037Z,11.30
2022-12-14T13:27:29.606Z,10.60
2022-12-14T13:30:23.941Z,10.53
2022-12-14T13:33:20.074Z,10.75
2022-12-14T13:36:07.682Z,9.78
2022-12-14T13:38:44.125Z,10.35
2022-12-14T13:41:23.200Z,9.35
2022-12-14T13:44:37.186Z,8.98
2022-12-14T13:47:07.430Z,8.55
2022-12-14T13:49:35.710Z,8.83
2022-12-14T13:52:05.910Z,10.53
2022-12-14T13:54:41.607Z,8.40
2022-12-14T13:57:18.441Z,6.83
2022-12-14T13:59:54.290Z,7.33
2022-12-14T14:02:37.036Z,7.65
2022-12-14T14:05:25.815Z,7.80
2022-12-14T14:08:39.205Z,10.50
2022-12-14T14:11:39.960Z,8.68
2022-12-14T14:14:22.660Z,8.35
2022-12-14T14:16:57.479Z,7.95
2022-12-14T14:19:28.068Z,8.68
2022-12-14T14:22:28.280Z,8.53
2022-12-14T14:25:08.953Z,9.05
2022-12-14T14:27:41.898Z,7.60
2022-12-14T14:30:35.652Z,7.47
2022-12-14T14:33:43.212Z,8.08
2022-12-14T14:35:38.111Z,6.80
2022-12-14T14:38:29.217Z,8.08
2022-12-14T14:41:19.059Z,7.70
2022-12-14T14:43:49.546Z,8.25
2022-12-14T14:46:23.154Z,9.48
2022-12-14T14:48:58.296Z,9.78
2022-12-14T14:51:30.280Z,9.20
2022-12-14T14:55:11.118Z,8.65
2022-12-14T14:56:53.508Z,10.30
2022-12-14T14:59:40.593Z,10.72
2022-12-14T15:02:31.169Z,11.60
2022-12-14T15:05:24.842Z,10.38
2022-12-14T15:07:32.510Z,11.73
2022-12-14T15:10:08.571Z,11.65
2022-12-14T15:12:53.512Z,13.05
2022-12-14T15:15:37.472Z,14.05
2022-12-14T15:18:24.129Z,19.23
2022-12-14T15:21:11.631Z,17.32
2022-12-14T15:23:52.605Z,17.98
2022-12-14T15:26:28.526Z,19.87
2022-12-14T15:29:00.029Z,17.85
2022-12-14T15:31:37.816Z,16.87
2022-12-14T15:34:06.349Z,16.80
2022-12-14T15:36:39.618Z,19.27
2022-12-14T15:39:27.893Z,16.02
2022-12-14T15:42:12.880Z,15.72
2022-12-14T15:44:51.074Z,17.05
2022-12-14T15:47:27.120Z,18.85
2022-12-14T15:50:15.781Z,15.15
2022-12-14T15:52:45.792Z,13.78
2022-12-14T15:55:36.922Z,13.70
2022-12-14T15:58:17.777Z,15.15
2022-12-14T16:00:51.066Z,15.05
2022-12-14T16:05:54.877Z,16.85
2022-12-14T16:08:24.526Z,17.05
2022-12-14T16:10:56.220Z,15.10
2022-12-14T16:13:32.708Z,15.13
2022-12-14T16:16:11.138Z,15.78
2022-12-14T16:18:51.240Z,15.20
2022-12-14T16:21:35.382Z,15.03
2022-12-14T16:24:25.686Z,14.25
2022-12-14T16:27:01.974Z,15.13
2022-12-14T16:29:34.110Z,15.03
2022-12-14T16:32:14.875Z,14.47
2022-12-14T16:34:58.550Z,14.00
2022-12-14T16:37:32.613Z,13.90
2022-12-14T16:39:56.143Z,15.10
2022-12-14T16:42:26.864Z,14.13
2022-12-14T16:44:55.029Z,15.15
2022-12-14T16:47:37.184Z,11.50
2022-12-14T16:50:55.020Z,11.80
2022-12-14T16:53:25.275Z,11.65
2022-12-14T16:56:15.306Z,12.10
2022-12-14T16:58:54.744Z,10.90
2022-12-14T17:01:26.080Z,10.68
2022-12-14T17:04:02.103Z,11.25
2022-12-14T17:06:39.427Z,13.20
2022-12-14T17:09:20.166Z,17.98
2022-12-14T17:12:01.829Z,15.05
2022-12-14T17:14:32.211Z,14.23
2022-12-14T17:17:07.142Z,13.35
2022-12-14T17:19:39.302Z,12.78
2022-12-14T17:22:21.748Z,13.22
2022-12-14T17:24:51.768Z,12.10
2022-12-14T17:27:24.496Z,12.18
2022-12-14T17:29:58.442Z,11.20
2022-12-14T17:32:30.453Z,11.90
2022-12-14T17:35:08.059Z,12.23
2022-12-14T17:37:38.978Z,13.43
2022-12-14T17:40:11.653Z,14.87
2022-12-14T17:42:40.944Z,16.02
2022-12-14T17:45:16.995Z,18.50
2022-12-14T17:47:45.618Z,19.05
2022-12-14T17:50:15.136Z,18.02
2022-12-14T17:52:43.651Z,17.25
2022-12-14T17:55:24.542Z,18.48
2022-12-14T17:57:52.887Z,16.67
2022-12-14T18:00:43.808Z,16.65
2022-12-14T18:03:15.371Z,16.95
2022-12-14T18:05:49.178Z,15.05
2022-12-14T18:08:19.800Z,15.25
2022-12-14T18:11:00.659Z,13.35
2022-12-14T18:13:31.188Z,13.50
2022-12-14T18:16:02.348Z,13.43
2022-12-14T18:18:30.750Z,13.70
2022-12-14T18:21:02.604Z,16.35
2022-12-14T18:23:36.256Z,16.00
2022-12-14T18:26:04.832Z,15.25
2022-12-14T18:28:36.323Z,15.50
2022-12-14T18:31:08.437Z,16.52
2022-12-14T18:33:40.817Z,18.57
2022-12-14T18:36:12.299Z,23.73
2022-12-14T18:38:41.132Z,20.00
2022-12-14T18:41:11.317Z,17.77
2022-12-14T18:43:43.645Z,18.90
2022-12-14T18:46:09.401Z,20.37
2022-12-14T18:48:38.124Z,23.27
2022-12-14T18:51:06.977Z,33.05
2022-12-14T18:53:35.169Z,20.95
2022-12-14T18:56:07.265Z,20.68
2022-12-14T18:58:35.133Z,24.05
2022-12-14T19:01:02.763Z,28.83
2022-12-14T19:03:32.542Z,22.35
2022-12-14T19:08:42.620Z,27.10
2022-12-14T19:11:14.668Z,21.07
2022-12-14T19:13:46.239Z,18.77
2022-12-14T19:16:17.616Z,18.15
2022-12-14T19:18:45.102Z,20.72
2022-12-14T19:21:12.794Z,21.77
2022-12-14T19:23:40.317Z,18.05
2022-12-14T19:26:07.706Z,18.55
2022-12-14T19:28:35.497Z,17.37
2022-12-14T19:31:03.581Z,17.00
2022-12-14T19:33:31.749Z,16.37
2022-12-14T19:35:59.723Z,18.05
2022-12-14T19:38:28.022Z,18.25
2022-12-14T19:41:04.488Z,18.17
2022-12-14T19:43:32.854Z,19.02
2022-12-14T19:46:07.764Z,17.40
2022-12-14T19:48:35.766Z,16.82
2022-12-14T19:51:10.966Z,17.57
2022-12-14T19:56:12.881Z,16.10
2022-12-14T19:58:40.755Z,15.38
2022-12-14T20:01:12.285Z,14.47
2022-12-14T20:03:41.097Z,13.75
2022-12-14T20:06:11.025Z,14.53
2022-12-14T20:08:38.812Z,15.45
2022-12-14T20:11:10.730Z,14.78
2022-12-14T20:13:40.493Z,15.50
2022-12-14T20:16:12.461Z,14.68
2022-12-14T20:18:40.423Z,15.08
2022-12-14T20:21:10.336Z,14.60
2022-12-14T20:23:39.217Z,13.53
2022-12-14T20:26:15.158Z,13.78
2022-12-14T20:28:45.342Z,12.70
2022-12-14T20:31:16.683Z,13.65
2022-12-14T20:33:45.225Z,13.10
2022-12-14T20:36:13.256Z,14.07
2022-12-14T20:38:41.017Z,14.30
2022-12-14T20:41:13.764Z,14.63
2022-12-14T20:43:43.642Z,14.58
2022-12-14T20:46:31.895Z,17.42
2022-12-14T20:49:03.588Z,16.27
2022-12-14T20:51:38.018Z,15.83
2022-12-14T20:54:10.962Z,15.55
2022-12-14T20:56:40.028Z,16.30
2022-12-14T20:59:10.588Z,18.92
2022-12-14T21:01:50.119Z,16.23
2022-12-14T21:04:16.979Z,16.45
2022-12-14T21:06:50.667Z,16.62
2022-12-14T21:09:19.252Z,17.05
2022-12-14T21:12:09.747Z,16.35
2022-12-14T21:14:46.132Z,16.87
2022-12-14T21:17:18.149Z,17.87
2022-12-14T21:19:47.102Z,18.73
2022-12-14T21:22:25.102Z,18.27
2022-12-14T21:25:03.033Z,15.50
2022-12-14T21:27:27.024Z,15.68
2022-12-14T21:29:55.550Z,14.90
2022-12-14T21:32:23.988Z,16.65
2022-12-14T21:34:52.173Z,16.40
2022-12-14T21:37:21.466Z,16.73
2022-12-14T21:39:55.079Z,17.35
2022-12-14T21:42:23.179Z,17.52
2022-12-14T21:44:53.563Z,18.40
2022-12-14T21:47:25.811Z,17.87
2022-12-14T21:50:05.143Z,14.23
2022-12-14T21:52:33.549Z,12.95
2022-12-14T21:55:03.257Z,14.18
2022-12-14T21:57:50.843Z,15.78
2022-12-14T22:00:19.802Z,12.15
2022-12-14T22:02:47.933Z,10.25
2022-12-14T22:05:17.010Z,9.25
2022-12-14T22:07:46.876Z,7.97
2022-12-14T22:10:17.657Z,9.38
2022-12-14T22:12:45.026Z,8.65
2022-12-14T22:15:12.902Z,9.55
2022-12-14T22:17:40.730Z,8.73
2022-12-14T22:20:10.487Z,8.60
2022-12-14T22:22:41.614Z,8.93
2022-12-14T22:25:12.374Z,8.43
2022-12-14T22:27:40.510Z,8.78
2022-12-14T22:30:11.676Z,8.13
2022-12-14T22:32:41.666Z,8.95
2022-12-14T22:35:10.318Z,8.93
2022-12-14T22:37:38.394Z,8.00
2022-12-14T22:40:08.579Z,8.25
2022-12-14T22:42:36.432Z,9.20
2022-12-14T22:45:05.829Z,8.48
2022-12-14T22:47:34.300Z,8.25
2022-12-14T22:50:02.607Z,9.88
2022-12-14T22:52:35.878Z,11.63
2022-12-14T22:55:05.112Z,10.00
2022-12-14T22:57:47.599Z,9.80
2022-12-14T23:00:16.483Z,9.83
2022-12-14T23:02:48.085Z,9.00
2022-12-14T23:05:17.576Z,9.00
2022-12-14T23:07:45.303Z,9.15
2022-12-14T23:10:31.409Z,9.25
2022-12-14T23:13:17.391Z,8.23
2022-12-14T23:16:04.759Z,8.78
2022-12-14T23:18:50.788Z,9.58
2022-12-14T23:21:37.219Z,8.95
2022-12-14T23:24:25.256Z,10.35
2022-12-14T23:27:14.263Z,12.37
2022-12-14T23:30:00.134Z,13.15
2022-12-14T23:32:46.312Z,14.20
2022-12-14T23:35:32.586Z,9.85
2022-12-14T23:38:26.719Z,7.97
2022-12-14T23:41:20.765Z,7.33
2022-12-14T23:44:08.341Z,8.03
2022-12-14T23:46:54.629Z,7.78
2022-12-14T23:49:41.422Z,8.13
2022-12-14T23:52:27.568Z,8.03
2022-12-14T23:57:59.668Z,8.53
